sensor_id;sensor_type;location;lat;lon;timestamp;pressure;altitude;pressure_sealevel;temperature;humidity
55763;BME280;42162;51.958;5.426;2024-02-26T00:00:26;99967.66;;;5.47;83.05
55763;BME280;42162;51.958;5.426;2024-02-26T00:02:53;99970.28;;;5.46;83.14
55763;BME280;42162;51.958;5.426;2024-02-26T00:05:21;99966.00;;;5.46;83.34
55763;BME280;42162;51.958;5.426;2024-02-26T00:07:48;99974.59;;;5.44;83.21
55763;BME280;42162;51.958;5.426;2024-02-26T00:10:18;99978.88;;;5.45;83.42
55763;BME280;42162;51.958;5.426;2024-02-26T00:12:47;99966.88;;;5.44;83.07
55763;BME280;42162;51.958;5.426;2024-02-26T00:15:14;99981.50;;;5.43;82.83
55763;BME280;42162;51.958;5.426;2024-02-26T00:17:43;99973.81;;;5.40;83.00
55763;BME280;42162;51.958;5.426;2024-02-26T00:20:10;99975.59;;;5.36;83.20
55763;BME280;42162;51.958;5.426;2024-02-26T00:22:38;99980.75;;;5.36;83.29
55763;BME280;42162;51.958;5.426;2024-02-26T00:25:05;99970.50;;;5.35;83.18
55763;BME280;42162;51.958;5.426;2024-02-26T00:27:32;99973.06;;;5.35;83.24
55763;BME280;42162;51.958;5.426;2024-02-26T00:29:59;99969.63;;;5.34;83.20
55763;BME280;42162;51.958;5.426;2024-02-26T00:32:27;99957.63;;;5.33;82.94
55763;BME280;42162;51.958;5.426;2024-02-26T00:34:54;99974.81;;;5.33;83.00
55763;BME280;42162;51.958;5.426;2024-02-26T00:37:21;99972.22;;;5.33;83.07
55763;BME280;42162;51.958;5.426;2024-02-26T00:39:48;99963.69;;;5.31;82.89
55763;BME280;42162;51.958;5.426;2024-02-26T00:42:19;99972.25;;;5.31;82.91
55763;BME280;42162;51.958;5.426;2024-02-26T00:44:47;99957.66;;;5.30;82.83
55763;BME280;42162;51.958;5.426;2024-02-26T00:47:14;99965.38;;;5.30;83.03
55763;BME280;42162;51.958;5.426;2024-02-26T00:49:41;99961.06;;;5.32;83.10
55763;BME280;42162;51.958;5.426;2024-02-26T00:52:08;99963.63;;;5.32;83.15
55763;BME280;42162;51.958;5.426;2024-02-26T00:54:36;99961.09;;;5.31;82.79
55763;BME280;42162;51.958;5.426;2024-02-26T00:57:03;99963.63;;;5.34;82.96
55763;BME280;42162;51.958;5.426;2024-02-26T00:59:30;99957.56;;;5.36;83.11
55763;BME280;42162;51.958;5.426;2024-02-26T01:01:57;99954.13;;;5.37;82.84
55763;BME280;42162;51.958;5.426;2024-02-26T01:04:26;99957.56;;;5.36;83.04
55763;BME280;42162;51.958;5.426;2024-02-26T01:06:54;99944.69;;;5.36;82.90
55763;BME280;42162;51.958;5.426;2024-02-26T01:09:22;99945.53;;;5.38;82.95
55763;BME280;42162;51.958;5.426;2024-02-26T01:11:49;99948.09;;;5.38;82.96
55763;BME280;42162;51.958;5.426;2024-02-26T01:14:16;99942.09;;;5.38;82.78
55763;BME280;42162;51.958;5.426;2024-02-26T01:16:43;99945.53;;;5.37;82.81
55763;BME280;42162;51.958;5.426;2024-02-26T01:19:10;99940.38;;;5.37;82.62
55763;BME280;42162;51.958;5.426;2024-02-26T01:21:38;99961.84;;;5.37;82.83
55763;BME280;42162;51.958;5.426;2024-02-26T01:24:05;99942.97;;;5.37;82.57
55763;BME280;42162;51.958;5.426;2024-02-26T01:26:33;99961.84;;;5.37;82.60
55763;BME280;42162;51.958;5.426;2024-02-26T01:29:00;99960.97;;;5.38;82.44
55763;BME280;42162;51.958;5.426;2024-02-26T01:31:27;99944.66;;;5.38;82.59
55763;BME280;42162;51.958;5.426;2024-02-26T01:33:54;99940.34;;;5.40;82.43
55763;BME280;42162;51.958;5.426;2024-02-26T01:36:22;99951.50;;;5.40;82.66
55763;BME280;42162;51.958;5.426;2024-02-26T01:38:49;99948.88;;;5.42;82.46
55763;BME280;42162;51.958;5.426;2024-02-26T01:41:16;99954.00;;;5.45;82.34
55763;BME280;42162;51.958;5.426;2024-02-26T01:43:43;99958.28;;;5.45;82.43
55763;BME280;42162;51.958;5.426;2024-02-26T01:46:13;99961.78;;;5.42;82.37
55763;BME280;42162;51.958;5.426;2024-02-26T01:48:45;99965.22;;;5.41;82.47
55763;BME280;42162;51.958;5.426;2024-02-26T01:51:15;99979.84;;;5.40;82.52
55763;BME280;42162;51.958;5.426;2024-02-26T01:53:43;99971.25;;;5.40;82.42
55763;BME280;42162;51.958;5.426;2024-02-26T01:56:11;99977.31;;;5.37;82.56
55763;BME280;42162;51.958;5.426;2024-02-26T01:58:39;99975.63;;;5.35;82.42
55763;BME280;42162;51.958;5.426;2024-02-26T02:01:06;99982.53;;;5.33;82.65
55763;BME280;42162;51.958;5.426;2024-02-26T02:03:34;99984.25;;;5.32;82.63
55763;BME280;42162;51.958;5.426;2024-02-26T02:06:03;99984.28;;;5.31;82.67
55763;BME280;42162;51.958;5.426;2024-02-26T02:08:31;99982.53;;;5.31;82.72
55763;BME280;42162;51.958;5.426;2024-02-26T02:10:59;99994.53;;;5.34;82.76
55763;BME280;42162;51.958;5.426;2024-02-26T02:13:26;99997.91;;;5.37;82.90
55763;BME280;42162;51.958;5.426;2024-02-26T02:15:53;100005.59;;;5.40;82.84
55763;BME280;42162;51.958;5.426;2024-02-26T02:18:20;100015.81;;;5.44;82.91
55763;BME280;42162;51.958;5.426;2024-02-26T02:20:48;100014.94;;;5.45;82.99
55763;BME280;42162;51.958;5.426;2024-02-26T02:23:15;100016.69;;;5.43;82.84
55763;BME280;42162;51.958;5.426;2024-02-26T02:25:42;100022.69;;;5.45;82.82
55763;BME280;42162;51.958;5.426;2024-02-26T02:28:09;100018.47;;;5.40;82.49
55763;BME280;42162;51.958;5.426;2024-02-26T02:30:38;100017.66;;;5.37;82.46
55763;BME280;42162;51.958;5.426;2024-02-26T02:33:06;100017.72;;;5.34;82.56
55763;BME280;42162;51.958;5.426;2024-02-26T02:35:34;100032.34;;;5.32;82.70
55763;BME280;42162;51.958;5.426;2024-02-26T02:38:01;100016.94;;;5.29;82.55
55763;BME280;42162;51.958;5.426;2024-02-26T02:40:28;100028.97;;;5.28;82.51
55763;BME280;42162;51.958;5.426;2024-02-26T02:42:55;100030.66;;;5.28;82.75
55763;BME280;42162;51.958;5.426;2024-02-26T02:45:22;100024.69;;;5.25;82.60
55763;BME280;42162;51.958;5.426;2024-02-26T02:47:50;100025.56;;;5.24;82.64
55763;BME280;42162;51.958;5.426;2024-02-26T02:50:17;100030.72;;;5.24;82.92
55763;BME280;42162;51.958;5.426;2024-02-26T02:52:44;100026.44;;;5.23;82.78
55763;BME280;42162;51.958;5.426;2024-02-26T02:55:12;100037.63;;;5.22;82.66
55763;BME280;42162;51.958;5.426;2024-02-26T02:57:39;100030.72;;;5.24;82.93
55763;BME280;42162;51.958;5.426;2024-02-26T03:00:10;100034.16;;;5.25;82.88
55763;BME280;42162;51.958;5.426;2024-02-26T03:02:38;100032.41;;;5.27;82.78
55763;BME280;42162;51.958;5.426;2024-02-26T03:05:05;100037.56;;;5.25;82.82
55763;BME280;42162;51.958;5.426;2024-02-26T03:07:33;100039.31;;;5.23;82.64
55763;BME280;42162;51.958;5.426;2024-02-26T03:10:00;100033.28;;;5.24;82.69
55763;BME280;42162;51.958;5.426;2024-02-26T03:12:28;100047.03;;;5.25;82.91
55763;BME280;42162;51.958;5.426;2024-02-26T03:14:55;100054.75;;;5.23;82.93
55763;BME280;42162;51.958;5.426;2024-02-26T03:17:22;100052.19;;;5.23;82.79
55763;BME280;42162;51.958;5.426;2024-02-26T03:19:51;100054.78;;;5.22;82.85
55763;BME280;42162;51.958;5.426;2024-02-26T03:22:20;100047.06;;;5.22;82.91
55763;BME280;42162;51.958;5.426;2024-02-26T03:24:48;100047.94;;;5.22;82.57
55763;BME280;42162;51.958;5.426;2024-02-26T03:27:15;100052.22;;;5.22;82.64
55763;BME280;42162;51.958;5.426;2024-02-26T03:29:50;100051.31;;;5.24;82.76
55763;BME280;42162;51.958;5.426;2024-02-26T03:32:18;100055.59;;;5.27;82.77
55763;BME280;42162;51.958;5.426;2024-02-26T03:34:45;100052.97;;;5.29;82.61
55763;BME280;42162;51.958;5.426;2024-02-26T03:37:13;100061.50;;;5.34;82.61
55763;BME280;42162;51.958;5.426;2024-02-26T03:39:40;100051.16;;;5.35;82.69
55763;BME280;42162;51.958;5.426;2024-02-26T03:42:07;100059.72;;;5.37;82.44
55763;BME280;42162;51.958;5.426;2024-02-26T03:44:34;100050.25;;;5.38;82.29
55763;BME280;42162;51.958;5.426;2024-02-26T03:47:01;100067.41;;;5.40;82.41
55763;BME280;42162;51.958;5.426;2024-02-26T03:49:29;100060.50;;;5.41;82.40
55763;BME280;42162;51.958;5.426;2024-02-26T03:51:56;100063.13;;;5.39;81.97
55763;BME280;42162;51.958;5.426;2024-02-26T03:54:23;100057.16;;;5.37;81.92
55763;BME280;42162;51.958;5.426;2024-02-26T03:56:50;100049.41;;;5.36;81.80
55763;BME280;42162;51.958;5.426;2024-02-26T03:59:18;100056.31;;;5.35;81.82
55763;BME280;42162;51.958;5.426;2024-02-26T04:01:46;100061.47;;;5.35;82.03
55763;BME280;42162;51.958;5.426;2024-02-26T04:04:16;100064.06;;;5.34;81.62
55763;BME280;42162;51.958;5.426;2024-02-26T04:06:46;100061.50;;;5.32;81.97
55763;BME280;42162;51.958;5.426;2024-02-26T04:09:14;100073.50;;;5.33;82.04
55763;BME280;42162;51.958;5.426;2024-02-26T04:11:41;100070.97;;;5.30;81.94
55763;BME280;42162;51.958;5.426;2024-02-26T04:14:10;100069.28;;;5.28;81.95
55763;BME280;42162;51.958;5.426;2024-02-26T04:16:39;100072.75;;;5.27;82.12
55763;BME280;42162;51.958;5.426;2024-02-26T04:19:06;100076.25;;;5.22;82.30
55763;BME280;42162;51.958;5.426;2024-02-26T04:21:34;100069.41;;;5.20;82.25
55763;BME280;42162;51.958;5.426;2024-02-26T04:24:02;100082.28;;;5.20;82.40
55763;BME280;42162;51.958;5.426;2024-02-26T04:26:30;100072.91;;;5.16;82.67
55763;BME280;42162;51.958;5.426;2024-02-26T04:28:57;100066.00;;;5.18;82.87
55763;BME280;42162;51.958;5.426;2024-02-26T04:31:24;100071.97;;;5.20;82.88
55763;BME280;42162;51.958;5.426;2024-02-26T04:33:53;100073.75;;;5.16;82.96
55763;BME280;42162;51.958;5.426;2024-02-26T04:36:20;100071.19;;;5.16;83.15
55763;BME280;42162;51.958;5.426;2024-02-26T04:38:48;100076.38;;;5.13;83.05
55763;BME280;42162;51.958;5.426;2024-02-26T04:41:15;100073.81;;;5.12;83.29
55763;BME280;42162;51.958;5.426;2024-02-26T04:43:43;100077.22;;;5.12;83.38
55763;BME280;42162;51.958;5.426;2024-02-26T04:46:10;100080.75;;;5.08;83.27
55763;BME280;42162;51.958;5.426;2024-02-26T04:48:37;100086.78;;;5.04;83.50
55763;BME280;42162;51.958;5.426;2024-02-26T04:51:05;100087.66;;;5.03;83.30
55763;BME280;42162;51.958;5.426;2024-02-26T04:53:35;100090.28;;;5.01;83.59
55763;BME280;42162;51.958;5.426;2024-02-26T04:56:03;100089.41;;;5.02;83.39
55763;BME280;42162;51.958;5.426;2024-02-26T04:58:30;100092.00;;;4.99;83.68
55763;BME280;42162;51.958;5.426;2024-02-26T05:00:57;100096.31;;;4.99;83.43
55763;BME280;42162;51.958;5.426;2024-02-26T05:03:25;100100.56;;;5.01;83.45
55763;BME280;42162;51.958;5.426;2024-02-26T05:05:52;100106.56;;;5.02;83.38
55763;BME280;42162;51.958;5.426;2024-02-26T05:08:19;100107.50;;;4.98;83.40
55763;BME280;42162;51.958;5.426;2024-02-26T05:10:49;100103.22;;;4.95;83.63
55763;BME280;42162;51.958;5.426;2024-02-26T05:13:17;100100.63;;;4.97;83.88
55763;BME280;42162;51.958;5.426;2024-02-26T05:15:45;100109.19;;;4.97;83.61
55763;BME280;42162;51.958;5.426;2024-02-26T05:18:15;100112.66;;;4.94;83.60
55763;BME280;42162;51.958;5.426;2024-02-26T05:20:42;100109.22;;;4.96;83.76
55763;BME280;42162;51.958;5.426;2024-02-26T05:23:10;100109.25;;;4.94;83.58
55763;BME280;42162;51.958;5.426;2024-02-26T05:25:37;100101.53;;;4.92;83.88
55763;BME280;42162;51.958;5.426;2024-02-26T05:28:04;100114.41;;;4.92;83.57
55763;BME280;42162;51.958;5.426;2024-02-26T05:30:31;100113.56;;;4.90;83.88
55763;BME280;42162;51.958;5.426;2024-02-26T05:32:58;100131.59;;;4.90;83.69
55763;BME280;42162;51.958;5.426;2024-02-26T05:35:26;100119.56;;;4.89;83.66
55763;BME280;42162;51.958;5.426;2024-02-26T05:37:53;100117.00;;;4.91;83.72
55763;BME280;42162;51.958;5.426;2024-02-26T05:40:20;100120.41;;;4.93;83.93
55763;BME280;42162;51.958;5.426;2024-02-26T05:42:48;100126.44;;;4.92;83.98
55763;BME280;42162;51.958;5.426;2024-02-26T05:45:16;100127.28;;;4.92;83.88
55763;BME280;42162;51.958;5.426;2024-02-26T05:47:43;100141.88;;;4.92;83.61
55763;BME280;42162;51.958;5.426;2024-02-26T05:50:11;100134.16;;;4.90;83.69
55763;BME280;42162;51.958;5.426;2024-02-26T05:52:40;100135.88;;;4.93;83.97
55763;BME280;42162;51.958;5.426;2024-02-26T05:55:08;100137.56;;;4.94;83.71
55763;BME280;42162;51.958;5.426;2024-02-26T05:57:36;100144.38;;;4.95;83.97
55763;BME280;42162;51.958;5.426;2024-02-26T06:00:03;100136.66;;;4.97;83.75
55763;BME280;42162;51.958;5.426;2024-02-26T06:02:38;100139.25;;;4.97;83.50
55763;BME280;42162;51.958;5.426;2024-02-26T06:05:05;100163.25;;;4.97;83.54
55763;BME280;42162;51.958;5.426;2024-02-26T06:07:34;100145.22;;;4.97;83.64
55763;BME280;42162;51.958;5.426;2024-02-26T06:10:02;100149.50;;;4.98;83.52
55763;BME280;42162;51.958;5.426;2024-02-26T06:12:30;100145.22;;;4.97;83.38
55763;BME280;42162;51.958;5.426;2024-02-26T06:14:58;100146.97;;;4.97;83.35
55763;BME280;42162;51.958;5.426;2024-02-26T06:17:28;100162.41;;;4.97;83.68
55763;BME280;42162;51.958;5.426;2024-02-26T06:19:56;100175.28;;;4.97;83.37
55763;BME280;42162;51.958;5.426;2024-02-26T06:22:23;100165.84;;;4.96;83.76
55763;BME280;42162;51.958;5.426;2024-02-26T06:24:50;100168.41;;;4.97;83.52
55763;BME280;42162;51.958;5.426;2024-02-26T06:27:17;100170.97;;;4.97;83.76
55763;BME280;42162;51.958;5.426;2024-02-26T06:29:45;100174.41;;;4.98;83.80
55763;BME280;42162;51.958;5.426;2024-02-26T06:32:13;100182.97;;;5.00;83.78
55763;BME280;42162;51.958;5.426;2024-02-26T06:34:40;100168.38;;;5.00;83.74
55763;BME280;42162;51.958;5.426;2024-02-26T06:37:08;100173.50;;;5.00;83.76
55763;BME280;42162;51.958;5.426;2024-02-26T06:39:35;100176.94;;;5.01;83.59
55763;BME280;42162;51.958;5.426;2024-02-26T06:42:03;100180.38;;;5.01;83.53
55763;BME280;42162;51.958;5.426;2024-02-26T06:44:30;100176.94;;;4.99;83.48
55763;BME280;42162;51.958;5.426;2024-02-26T06:46:59;100176.94;;;5.01;83.83
55763;BME280;42162;51.958;5.426;2024-02-26T06:49:27;100192.38;;;5.01;83.84
55763;BME280;42162;51.958;5.426;2024-02-26T06:51:55;100184.66;;;5.01;83.99
55763;BME280;42162;51.958;5.426;2024-02-26T06:54:22;100194.94;;;5.01;83.60
55763;BME280;42162;51.958;5.426;2024-02-26T06:56:49;100194.94;;;5.01;83.62
55763;BME280;42162;51.958;5.426;2024-02-26T06:59:16;100201.00;;;5.00;83.91
55763;BME280;42162;51.958;5.426;2024-02-26T07:01:44;100202.69;;;4.99;83.70
55763;BME280;42162;51.958;5.426;2024-02-26T07:04:11;100212.13;;;5.00;83.85
55763;BME280;42162;51.958;5.426;2024-02-26T07:06:38;100220.69;;;5.01;83.80
55763;BME280;42162;51.958;5.426;2024-02-26T07:09:05;100221.56;;;4.98;83.99
55763;BME280;42162;51.958;5.426;2024-02-26T07:11:33;100213.03;;;4.98;83.82
55763;BME280;42162;51.958;5.426;2024-02-26T07:14:00;100226.75;;;4.97;83.91
55763;BME280;42162;51.958;5.426;2024-02-26T07:16:28;100227.59;;;4.97;84.23
55763;BME280;42162;51.958;5.426;2024-02-26T07:18:55;100227.63;;;4.96;84.28
55763;BME280;42162;51.958;5.426;2024-02-26T07:21:23;100236.19;;;4.96;84.42
55763;BME280;42162;51.958;5.426;2024-02-26T07:23:50;100241.34;;;4.94;84.30
55763;BME280;42162;51.958;5.426;2024-02-26T07:26:17;100236.22;;;4.94;84.65
55763;BME280;42162;51.958;5.426;2024-02-26T07:28:46;100244.78;;;4.97;84.71
55763;BME280;42162;51.958;5.426;2024-02-26T07:31:13;100251.63;;;4.96;84.54
55763;BME280;42162;51.958;5.426;2024-02-26T07:33:40;100243.06;;;4.96;84.81
55763;BME280;42162;51.958;5.426;2024-02-26T07:36:08;100253.38;;;4.94;84.79
55763;BME280;42162;51.958;5.426;2024-02-26T07:38:35;100251.69;;;4.91;84.86
55763;BME280;42162;51.958;5.426;2024-02-26T07:41:10;100259.44;;;4.88;84.96
55763;BME280;42162;51.958;5.426;2024-02-26T07:43:38;100268.88;;;4.88;84.74
55763;BME280;42162;51.958;5.426;2024-02-26T07:46:05;100262.91;;;4.87;84.88
55763;BME280;42162;51.958;5.426;2024-02-26T07:48:32;100262.03;;;4.87;85.05
55763;BME280;42162;51.958;5.426;2024-02-26T07:51:00;100262.03;;;4.87;85.28
55763;BME280;42162;51.958;5.426;2024-02-26T07:53:30;100262.91;;;4.87;85.25
55763;BME280;42162;51.958;5.426;2024-02-26T07:55:57;100266.31;;;4.85;85.57
55763;BME280;42162;51.958;5.426;2024-02-26T07:58:24;100280.91;;;4.86;85.35
55763;BME280;42162;51.958;5.426;2024-02-26T08:00:51;100276.59;;;4.88;85.67
55763;BME280;42162;51.958;5.426;2024-02-26T08:03:19;100280.03;;;4.88;85.57
55763;BME280;42162;51.958;5.426;2024-02-26T08:05:46;100285.22;;;4.85;85.58
55763;BME280;42162;51.958;5.426;2024-02-26T08:08:13;100286.88;;;4.88;85.96
55763;BME280;42162;51.958;5.426;2024-02-26T08:10:41;100289.50;;;4.86;86.11
55763;BME280;42162;51.958;5.426;2024-02-26T08:13:08;100297.22;;;4.86;86.11
55763;BME280;42162;51.958;5.426;2024-02-26T08:15:36;100298.91;;;4.89;86.21
55763;BME280;42162;51.958;5.426;2024-02-26T08:18:06;100305.75;;;4.90;86.15
55763;BME280;42162;51.958;5.426;2024-02-26T08:20:33;100308.31;;;4.90;86.26
55763;BME280;42162;51.958;5.426;2024-02-26T08:23:00;100310.06;;;4.88;86.22
55763;BME280;42162;51.958;5.426;2024-02-26T08:25:27;100318.66;;;4.88;86.42
55763;BME280;42162;51.958;5.426;2024-02-26T08:27:55;100311.75;;;4.90;86.55
55763;BME280;42162;51.958;5.426;2024-02-26T08:30:22;100311.75;;;4.92;86.63
55763;BME280;42162;51.958;5.426;2024-02-26T08:32:49;100319.47;;;4.92;86.80
55763;BME280;42162;51.958;5.426;2024-02-26T08:35:19;100310.03;;;4.91;86.61
55763;BME280;42162;51.958;5.426;2024-02-26T08:37:47;100327.16;;;4.93;86.66
55763;BME280;42162;51.958;5.426;2024-02-26T08:40:15;100321.16;;;4.91;86.93
55763;BME280;42162;51.958;5.426;2024-02-26T08:42:42;100331.47;;;4.91;86.74
55763;BME280;42162;51.958;5.426;2024-02-26T08:45:10;100315.19;;;4.91;86.92
55763;BME280;42162;51.958;5.426;2024-02-26T08:47:38;100329.75;;;4.90;87.00
55763;BME280;42162;51.958;5.426;2024-02-26T08:50:06;100325.47;;;4.91;87.18
55763;BME280;42162;51.958;5.426;2024-02-26T08:52:33;100332.34;;;4.92;87.04
55763;BME280;42162;51.958;5.426;2024-02-26T08:55:00;100346.03;;;4.96;87.14
55763;BME280;42162;51.958;5.426;2024-02-26T08:57:27;100341.72;;;4.98;87.32
55763;BME280;42162;51.958;5.426;2024-02-26T08:59:55;100339.13;;;4.99;87.12
55763;BME280;42162;51.958;5.426;2024-02-26T09:02:22;100341.69;;;4.99;87.18
55763;BME280;42162;51.958;5.426;2024-02-26T09:04:49;100346.88;;;4.98;87.39
55763;BME280;42162;51.958;5.426;2024-02-26T09:07:18;100354.59;;;4.96;87.64
55763;BME280;42162;51.958;5.426;2024-02-26T09:09:45;100358.06;;;4.93;87.70
55763;BME280;42162;51.958;5.426;2024-02-26T09:12:12;100352.91;;;4.93;87.77
55763;BME280;42162;51.958;5.426;2024-02-26T09:14:40;100364.88;;;4.96;87.95
55763;BME280;42162;51.958;5.426;2024-02-26T09:17:07;100366.59;;;4.97;87.70
55763;BME280;42162;51.958;5.426;2024-02-26T09:19:34;100370.88;;;5.00;88.17
55763;BME280;42162;51.958;5.426;2024-02-26T09:22:02;100369.97;;;5.01;87.91
55763;BME280;42162;51.958;5.426;2024-02-26T09:24:29;100372.56;;;5.01;88.10
55763;BME280;42162;51.958;5.426;2024-02-26T09:26:56;100376.03;;;4.98;87.99
55763;BME280;42162;51.958;5.426;2024-02-26T09:29:24;100379.47;;;4.97;88.23
55763;BME280;42162;51.958;5.426;2024-02-26T09:31:53;100380.31;;;4.96;88.13
55763;BME280;42162;51.958;5.426;2024-02-26T09:34:20;100380.34;;;4.94;88.18
55763;BME280;42162;51.958;5.426;2024-02-26T09:36:47;100382.03;;;4.97;88.66
55763;BME280;42162;51.958;5.426;2024-02-26T09:39:15;100394.91;;;4.99;88.66
55763;BME280;42162;51.958;5.426;2024-02-26T09:41:48;100388.00;;;5.02;88.66
55763;BME280;42162;51.958;5.426;2024-02-26T09:44:19;100406.88;;;5.04;88.47
55763;BME280;42162;51.958;5.426;2024-02-26T09:46:49;100408.59;;;5.04;88.35
55763;BME280;42162;51.958;5.426;2024-02-26T09:49:19;100406.91;;;5.01;88.43
55763;BME280;42162;51.958;5.426;2024-02-26T09:51:49;100435.19;;;5.03;88.58
55763;BME280;42162;51.958;5.426;2024-02-26T09:54:17;100419.78;;;4.98;88.47
55763;BME280;42162;51.958;5.426;2024-02-26T09:56:46;100417.22;;;4.98;88.51
55763;BME280;42162;51.958;5.426;2024-02-26T09:59:34;100417.22;;;5.00;88.73
55763;BME280;42162;51.958;5.426;2024-02-26T10:02:14;100419.78;;;5.00;88.86
55763;BME280;42162;51.958;5.426;2024-02-26T10:04:42;100430.91;;;5.02;88.81
55763;BME280;42162;51.958;5.426;2024-02-26T10:07:16;100429.19;;;5.02;88.90
55763;BME280;42162;51.958;5.426;2024-02-26T10:09:44;100434.31;;;5.04;89.04
55763;BME280;42162;51.958;5.426;2024-02-26T10:12:11;100443.78;;;5.00;88.94
55763;BME280;42162;51.958;5.426;2024-02-26T10:14:39;100448.09;;;5.01;88.91
55763;BME280;42162;51.958;5.426;2024-02-26T10:17:07;100443.78;;;5.02;88.85
55763;BME280;42162;51.958;5.426;2024-02-26T10:19:35;100446.34;;;5.02;89.07
55763;BME280;42162;51.958;5.426;2024-02-26T10:22:05;100457.50;;;5.01;88.97
55763;BME280;42162;51.958;5.426;2024-02-26T10:24:32;100451.50;;;5.02;89.04
55763;BME280;42162;51.958;5.426;2024-02-26T10:27:02;100463.50;;;5.04;89.25
55763;BME280;42162;51.958;5.426;2024-02-26T10:29:30;100460.91;;;5.06;89.37
55763;BME280;42162;51.958;5.426;2024-02-26T10:31:58;100461.75;;;5.09;89.10
55763;BME280;42162;51.958;5.426;2024-02-26T10:34:26;100463.44;;;5.10;89.41
55763;BME280;42162;51.958;5.426;2024-02-26T10:36:54;100479.75;;;5.09;88.85
55763;BME280;42162;51.958;5.426;2024-02-26T10:39:21;100484.03;;;5.10;89.24
55763;BME280;42162;51.958;5.426;2024-02-26T10:41:49;100485.78;;;5.10;89.14
55763;BME280;42162;51.958;5.426;2024-02-26T10:44:17;100489.22;;;5.07;89.13
55763;BME280;42162;51.958;5.426;2024-02-26T10:46:48;100499.53;;;5.09;89.44
55763;BME280;42162;51.958;5.426;2024-02-26T10:49:19;100494.34;;;5.07;89.37
55763;BME280;42162;51.958;5.426;2024-02-26T10:51:58;100510.66;;;5.11;89.19
55763;BME280;42162;51.958;5.426;2024-02-26T10:54:26;100508.94;;;5.12;89.40
55763;BME280;42162;51.958;5.426;2024-02-26T10:56:57;100529.56;;;5.07;89.12
55763;BME280;42162;51.958;5.426;2024-02-26T10:59:26;100539.84;;;5.08;89.30
55763;BME280;42162;51.958;5.426;2024-02-26T11:01:54;100529.53;;;5.08;89.37
55763;BME280;42162;51.958;5.426;2024-02-26T11:04:23;100535.56;;;5.09;89.39
55763;BME280;42162;51.958;5.426;2024-02-26T11:06:57;100544.97;;;5.12;89.27
55763;BME280;42162;51.958;5.426;2024-02-26T11:09:24;100533.78;;;5.14;89.28
55763;BME280;42162;51.958;5.426;2024-02-26T11:11:52;100536.34;;;5.19;89.42
55763;BME280;42162;51.958;5.426;2024-02-26T11:14:22;100548.38;;;5.15;89.39
55763;BME280;42162;51.958;5.426;2024-02-26T11:16:54;100554.41;;;5.16;89.48
55763;BME280;42162;51.958;5.426;2024-02-26T11:19:24;100553.53;;;5.17;89.54
55763;BME280;42162;51.958;5.426;2024-02-26T11:21:52;100551.81;;;5.16;89.46
55763;BME280;42162;51.958;5.426;2024-02-26T11:24:19;100557.81;;;5.16;89.52
55763;BME280;42162;51.958;5.426;2024-02-26T11:26:55;100551.81;;;5.17;89.55
55763;BME280;42162;51.958;5.426;2024-02-26T11:29:37;100559.50;;;5.19;89.75
55763;BME280;42162;51.958;5.426;2024-02-26T11:32:06;100558.66;;;5.20;89.83
55763;BME280;42162;51.958;5.426;2024-02-26T11:34:33;100562.06;;;5.22;89.88
55763;BME280;42162;51.958;5.426;2024-02-26T11:37:14;100564.66;;;5.20;89.84
55763;BME280;42162;51.958;5.426;2024-02-26T11:39:43;100567.25;;;5.20;89.62
55763;BME280;42162;51.958;5.426;2024-02-26T11:42:15;100571.53;;;5.21;89.78
55763;BME280;42162;51.958;5.426;2024-02-26T11:44:43;100574.94;;;5.22;89.68
55763;BME280;42162;51.958;5.426;2024-02-26T11:49:40;100572.38;;;5.19;89.71
55763;BME280;42162;51.958;5.426;2024-02-26T11:52:09;100580.09;;;5.19;89.94
55763;BME280;42162;51.958;5.426;2024-02-26T11:54:44;100583.56;;;5.16;89.92
55763;BME280;42162;51.958;5.426;2024-02-26T11:59:51;100578.41;;;5.16;89.72
55763;BME280;42162;51.958;5.426;2024-02-26T12:05:19;100594.72;;;5.18;90.01
55763;BME280;42162;51.958;5.426;2024-02-26T12:07:55;100592.13;;;5.20;89.76
55763;BME280;42162;51.958;5.426;2024-02-26T12:12:59;100596.41;;;5.18;89.83
55763;BME280;42162;51.958;5.426;2024-02-26T12:15:32;100598.16;;;5.20;90.09
55763;BME280;42162;51.958;5.426;2024-02-26T12:18:03;100603.28;;;5.22;90.29
55763;BME280;42162;51.958;5.426;2024-02-26T12:20:31;100609.31;;;5.22;89.95
55763;BME280;42162;51.958;5.426;2024-02-26T12:22:59;100616.13;;;5.23;90.14
55763;BME280;42162;51.958;5.426;2024-02-26T12:25:28;100608.41;;;5.23;90.19
55763;BME280;42162;51.958;5.426;2024-02-26T12:27:56;100617.88;;;5.23;90.02
55763;BME280;42162;51.958;5.426;2024-02-26T12:30:23;100613.53;;;5.27;90.32
55763;BME280;42162;51.958;5.426;2024-02-26T12:32:52;100627.25;;;5.32;90.19
55763;BME280;42162;51.958;5.426;2024-02-26T12:35:19;100633.25;;;5.32;90.17
55763;BME280;42162;51.958;5.426;2024-02-26T12:37:47;100634.97;;;5.33;90.22
55763;BME280;42162;51.958;5.426;2024-02-26T12:40:14;100639.25;;;5.34;90.20
55763;BME280;42162;51.958;5.426;2024-02-26T12:42:41;100641.81;;;5.36;90.10
55763;BME280;42162;51.958;5.426;2024-02-26T12:45:10;100634.94;;;5.38;90.16
55763;BME280;42162;51.958;5.426;2024-02-26T12:47:39;100647.84;;;5.39;90.20
55763;BME280;42162;51.958;5.426;2024-02-26T12:50:07;100650.38;;;5.43;90.35
55763;BME280;42162;51.958;5.426;2024-02-26T12:52:38;100651.22;;;5.45;89.95
55763;BME280;42162;51.958;5.426;2024-02-26T12:55:06;100650.34;;;5.46;90.11
55763;BME280;42162;51.958;5.426;2024-02-26T12:57:37;100660.63;;;5.47;90.16
55763;BME280;42162;51.958;5.426;2024-02-26T13:00:06;100664.06;;;5.49;90.04
55763;BME280;42162;51.958;5.426;2024-02-26T13:02:37;100654.63;;;5.51;89.88
55763;BME280;42162;51.958;5.426;2024-02-26T13:05:06;100679.50;;;5.54;90.08
55763;BME280;42162;51.958;5.426;2024-02-26T13:07:40;100671.78;;;5.55;89.85
55763;BME280;42162;51.958;5.426;2024-02-26T13:10:08;100679.47;;;5.59;89.97
55763;BME280;42162;51.958;5.426;2024-02-26T13:12:35;100675.16;;;5.61;89.85
55763;BME280;42162;51.958;5.426;2024-02-26T13:15:03;100682.88;;;5.64;89.89
55763;BME280;42162;51.958;5.426;2024-02-26T13:17:33;100691.47;;;5.66;89.78